Time;durP1;ratioP1;P1;durP2;ratioP2;P2;SDS_P1;SDS_P2;PMS_P1;PMS_P2;Temp;Humidity;BMP_temperature;BMP_pressure;BME280_temperature;BME280_humidity;BME280_pressure;Samples;Min_cycle;Max_cycle;Signal;HPM_P1;HPM_P2
2023/10/01 00:00:15;;;;;;;15.30;8.77;;;14.80;99.90;;;;;;4985140;28;20065;-58
2023/10/01 00:02:41;;;;;;;19.33;9.57;;;14.80;99.90;;;;;;5005142;28;20054;-58
2023/10/01 00:05:08;;;;;;;15.80;8.75;;;15.10;99.90;;;;;;5006631;28;20049;-58
2023/10/01 00:07:37;;;;;;;18.50;9.38;;;14.80;99.90;;;;;;5005748;28;20046;-57
2023/10/01 00:10:10;;;;;;;17.38;8.88;;;14.80;99.90;;;;;;4987132;28;20625;-54
2023/10/01 00:12:41;;;;;;;15.88;8.50;;;14.80;99.90;;;;;;5006022;28;20073;-57
2023/10/01 00:15:11;;;;;;;16.30;9.00;;;14.80;99.90;;;;;;5008890;28;20057;-56
2023/10/01 00:17:38;;;;;;;14.38;9.32;;;14.80;99.90;;;;;;5005344;28;20133;-56
2023/10/01 00:20:12;;;;;;;19.05;9.05;;;14.80;99.90;;;;;;5006502;28;20574;-57
2023/10/01 00:22:38;;;;;;;22.40;10.15;;;14.80;99.90;;;;;;5006162;28;20056;-57
2023/10/01 00:25:08;;;;;;;18.77;9.60;;;14.70;99.90;;;;;;5005602;28;20041;-56
2023/10/01 00:27:34;;;;;;;20.45;10.68;;;14.70;99.90;;;;;;5025056;28;20053;-56
2023/10/01 00:29:59;;;;;;;15.40;9.02;;;15.00;99.90;;;;;;5025791;28;20056;-57
2023/10/01 00:32:29;;;;;;;19.15;10.45;;;14.70;99.90;;;;;;5024919;28;20729;-56
2023/10/01 00:34:57;;;;;;;18.73;10.55;;;14.70;99.90;;;;;;5026499;28;20030;-57
2023/10/01 00:37:23;;;;;;;19.67;10.25;;;14.80;99.90;;;;;;5025169;28;20056;-57
2023/10/01 00:39:54;;;;;;;16.23;10.48;;;14.60;99.90;;;;;;5025724;28;20041;-58
2023/10/01 00:42:21;;;;;;;18.05;10.00;;;14.60;99.90;;;;;;5024848;28;20081;-54
2023/10/01 00:44:47;;;;;;;20.73;11.18;;;14.60;99.90;;;;;;5012084;28;20040;-57
2023/10/01 00:47:14;;;;;;;16.15;10.40;;;14.60;99.90;;;;;;4988476;28;20080;-56
2023/10/01 00:49:47;;;;;;;16.10;9.95;;;14.60;99.90;;;;;;5004929;28;20138;-54
2023/10/01 00:52:20;;;;;;;17.35;11.27;;;14.60;99.90;;;;;;4987996;28;20133;-56
2023/10/01 00:54:47;;;;;;;18.58;11.40;;;14.60;99.90;;;;;;5005399;28;20647;-57
2023/10/01 00:57:16;;;;;;;19.05;11.15;;;14.60;99.90;;;;;;5014720;28;20045;-56
2023/10/01 00:59:43;;;;;;;14.82;10.38;;;14.60;99.90;;;;;;5005803;28;20042;-57
2023/10/01 01:02:10;;;;;;;15.70;10.45;;;14.60;99.90;;;;;;5004772;28;20050;-56
2023/10/01 01:04:42;;;;;;;20.65;11.15;;;14.50;99.90;;;;;;4986534;28;20049;-54
2023/10/01 01:07:16;;;;;;;19.50;11.50;;;14.50;99.90;;;;;;4987071;28;20038;-56
2023/10/01 01:09:45;;;;;;;20.00;11.30;;;14.50;99.90;;;;;;5004596;28;20058;-57
2023/10/01 01:12:12;;;;;;;20.92;11.85;;;14.60;99.90;;;;;;5005084;28;20269;-57
2023/10/01 01:14:45;;;;;;;20.65;12.07;;;14.50;99.90;;;;;;5060504;23;20500;-55
2023/10/01 01:17:11;;;;;;;19.30;11.82;;;14.50;99.90;;;;;;5002891;28;20045;-52
2023/10/01 01:19:37;;;;;;;18.23;11.27;;;14.50;99.90;;;;;;5008671;28;20029;-58
2023/10/01 01:22:03;;;;;;;20.02;12.30;;;14.50;99.90;;;;;;5015699;28;20065;-58
2023/10/01 01:24:30;;;;;;;20.27;11.50;;;14.50;99.90;;;;;;5002511;28;20136;-58
2023/10/01 01:27:05;;;;;;;19.05;11.85;;;14.40;99.90;;;;;;5004489;28;20049;-58
2023/10/01 01:29:40;;;;;;;21.08;12.27;;;14.40;99.90;;;;;;5004466;28;20514;-56
2023/10/01 01:32:15;;;;;;;;;;;14.50;99.90;;;;;;5005647;28;20064;-55
2023/10/01 01:34:44;;;;;;;20.40;11.57;;;14.60;99.90;;;;;;5004408;28;19929;-56
2023/10/01 01:37:19;;;;;;;16.80;10.85;;;14.50;99.90;;;;;;5004403;28;20049;-57
2023/10/01 01:39:49;;;;;;;22.67;11.75;;;14.50;99.90;;;;;;5003967;28;20056;-56
2023/10/01 01:42:21;;;;;;;20.98;11.57;;;14.50;99.90;;;;;;5005060;28;20054;-57
2023/10/01 01:45:15;;;;;;;21.95;11.13;;;14.50;99.90;;;;;;5004356;28;20356;-52
2023/10/01 01:47:33;;;;;;;18.45;11.43;;;14.50;99.90;;;;;;5003533;28;20049;-57
2023/10/01 01:50:09;;;;;;;19.35;11.18;;;14.50;99.90;;;;;;5004035;28;20050;-56
2023/10/01 01:52:36;;;;;;;18.77;11.80;;;14.50;99.90;;;;;;5001564;28;20231;-56
2023/10/01 01:55:22;;;;;;;20.50;11.77;;;14.40;99.90;;;;;;5003734;28;20046;-55
2023/10/01 01:58:02;;;;;;;19.30;11.48;;;14.40;99.90;;;;;;5002904;28;20050;-57
2023/10/01 02:00:31;;;;;;;21.80;11.50;;;14.40;99.90;;;;;;5003990;28;20057;-56
2023/10/01 02:02:59;;;;;;;19.65;11.05;;;14.60;99.90;;;;;;5002945;28;20125;-58
2023/10/01 02:05:28;;;;;;;16.38;11.15;;;14.30;99.90;;;;;;5003406;28;20049;-56
2023/10/01 02:07:54;;;;;;;22.40;12.23;;;14.40;99.90;;;;;;5004048;28;20611;-56
2023/10/01 02:10:20;;;;;;;22.13;12.07;;;14.30;99.90;;;;;;5002570;28;20050;-55
2023/10/01 02:12:50;;;;;;;19.25;12.18;;;14.30;99.90;;;;;;5003687;28;20048;-54
2023/10/01 02:15:18;;;;;;;20.05;12.10;;;14.20;99.90;;;;;;5004040;28;20137;-55
2023/10/01 02:17:43;;;;;;;24.35;12.88;;;14.10;99.90;;;;;;5003711;28;20050;-58
2023/10/01 02:20:20;;;;;;;21.98;12.38;;;14.10;99.90;;;;;;5002524;28;20472;-56
2023/10/01 02:22:47;;;;;;;24.38;12.13;;;14.20;99.90;;;;;;4986046;28;20041;-55
2023/10/01 02:25:12;;;;;;;20.83;12.50;;;14.10;99.90;;;;;;5002209;28;20459;-56
2023/10/01 02:27:48;;;;;;;21.20;12.10;;;14.20;99.90;;;;;;5002675;28;20054;-56
2023/10/01 02:30:16;;;;;;;21.23;12.75;;;14.20;99.90;;;;;;5003769;28;20050;-57
2023/10/01 02:35:35;;;;;;;19.45;12.10;;;14.10;99.90;;;;;;5003167;28;20097;-56
2023/10/01 02:38:07;;;;;;;;;;;14.10;99.90;;;;;;5003407;28;20054;-57
2023/10/01 02:40:37;;;;;;;20.05;11.95;;;14.10;99.90;;;;;;5001588;28;19952;-55
2023/10/01 02:43:09;;;;;;;22.95;13.38;;;14.20;99.90;;;;;;5003288;28;20061;-56
2023/10/01 02:45:41;;;;;;;22.98;13.10;;;14.10;99.90;;;;;;5003139;28;20108;-56
2023/10/01 02:48:18;;;;;;;21.20;12.95;;;14.10;99.90;;;;;;5002937;28;20045;-55
2023/10/01 02:50:51;;;;;;;22.67;12.93;;;14.20;99.90;;;;;;5002965;28;20053;-55
2023/10/01 02:53:22;;;;;;;19.55;12.50;;;14.40;99.90;;;;;;5002985;28;20092;-55
2023/10/01 02:55:52;;;;;;;20.05;12.68;;;14.20;99.90;;;;;;5002026;28;20056;-54
2023/10/01 02:58:20;;;;;;;19.85;13.20;;;14.20;99.90;;;;;;5003058;28;20148;-56
2023/10/01 03:00:46;;;;;;;21.77;12.90;;;14.40;99.90;;;;;;5000665;28;20107;-57
2023/10/01 03:03:17;;;;;;;20.95;13.00;;;14.20;99.90;;;;;;5002561;28;20121;-58
2023/10/01 03:05:46;;;;;;;20.35;13.00;;;14.20;99.90;;;;;;5001047;28;20416;-57
2023/10/01 03:10:57;;;;;;;;;;;14.20;99.90;;;;;;5002608;28;20072;-55
2023/10/01 03:13:30;;;;;;;20.05;12.80;;;14.20;99.90;;;;;;5002892;28;19924;-57
2023/10/01 03:18:46;;;;;;;25.05;12.82;;;14.20;99.90;;;;;;5002032;28;20050;-55
2023/10/01 03:21:19;;;;;;;20.90;12.63;;;14.20;99.90;;;;;;5001524;28;20503;-57
2023/10/01 03:23:52;;;;;;;20.25;13.45;;;14.20;99.90;;;;;;5002945;28;20042;-57
2023/10/01 03:26:18;;;;;;;19.65;12.23;;;14.20;99.90;;;;;;5001218;28;20053;-54
2023/10/01 03:31:29;;;;;;;18.75;13.35;;;14.30;99.90;;;;;;5001772;28;20045;-55
2023/10/01 03:33:54;;;;;;;20.98;13.48;;;14.30;99.90;;;;;;5001467;28;20091;-56
2023/10/01 03:36:32;;;;;;;20.00;13.23;;;14.30;99.90;;;;;;5005074;28;20469;-57
2023/10/01 03:42:10;;;;;;;19.50;12.63;;;14.30;99.90;;;;;;5006603;28;20085;-57
2023/10/01 03:47:24;;;;;;;20.50;13.07;;;14.30;99.90;;;;;;5007142;28;20046;-57
2023/10/01 03:49:54;;;;;;;20.67;13.00;;;14.40;99.90;;;;;;5006710;28;20543;-56
2023/10/01 03:52:23;;;;;;;18.65;13.35;;;14.40;99.90;;;;;;5006307;28;20103;-55
2023/10/01 03:54:53;;;;;;;17.17;12.82;;;14.40;99.90;;;;;;5005172;28;20042;-56
2023/10/01 03:57:19;;;;;;;22.90;13.52;;;14.40;99.90;;;;;;5005336;28;20045;-56
2023/10/01 03:59:51;;;;;;;19.00;13.52;;;14.40;99.90;;;;;;5005345;28;20046;-57
2023/10/01 04:03:06;;;;;;;19.55;12.52;;;14.30;99.90;;;;;;5007177;28;20126;-56
2023/10/01 04:05:22;;;;;;;19.48;13.52;;;14.40;99.90;;;;;;5000805;28;20050;-54
2023/10/01 04:07:49;;;;;;;17.67;12.82;;;14.70;99.90;;;;;;5006188;28;20081;-54
2023/10/01 04:10:28;;;;;;;19.83;13.60;;;14.50;99.90;;;;;;5006056;28;20127;-55
2023/10/01 04:12:58;;;;;;;18.33;13.88;;;14.60;99.90;;;;;;5006619;28;20069;-54
2023/10/01 04:15:29;;;;;;;20.48;14.18;;;14.50;99.90;;;;;;5003880;28;20058;-58
2023/10/01 04:21:29;;;;;;;19.90;13.82;;;14.50;99.90;;;;;;5005244;28;20104;-56
2023/10/01 04:23:36;;;;;;;19.55;13.85;;;14.50;99.90;;;;;;4998340;28;20053;-56
2023/10/01 04:26:11;;;;;;;20.13;13.88;;;14.60;99.90;;;;;;5004192;28;20057;-54
2023/10/01 04:28:44;;;;;;;18.42;13.30;;;14.60;99.90;;;;;;5004949;28;20081;-55
2023/10/01 04:31:14;;;;;;;20.67;13.50;;;14.60;99.90;;;;;;5006359;28;20436;-56
2023/10/01 04:33:48;;;;;;;20.08;13.75;;;14.60;99.90;;;;;;5005704;28;20115;-56
2023/10/01 04:36:19;;;;;;;18.43;13.33;;;14.60;99.90;;;;;;5005501;28;20046;-56
2023/10/01 04:38:48;;;;;;;20.02;13.55;;;14.60;99.90;;;;;;5004983;28;20049;-57
2023/10/01 04:41:18;;;;;;;19.20;13.60;;;14.70;99.90;;;;;;5004545;28;20050;-54
2023/10/01 04:44:06;;;;;;;21.83;14.20;;;14.70;99.90;;;;;;5004368;28;20046;-56
2023/10/01 04:46:40;;;;;;;18.67;13.88;;;14.60;99.90;;;;;;5005188;28;20460;-57
2023/10/01 04:49:56;;;;;;;17.85;13.55;;;14.60;99.90;;;;;;4988097;28;20372;-55
2023/10/01 04:52:01;;;;;;;23.58;14.48;;;14.70;99.90;;;;;;4993351;28;20057;-57
2023/10/01 04:54:28;;;;;;;23.10;14.15;;;14.70;99.90;;;;;;5004838;28;20042;-57
2023/10/01 04:56:57;;;;;;;18.35;13.20;;;14.60;99.90;;;;;;5004614;28;20555;-57
2023/10/01 04:59:24;;;;;;;20.45;14.30;;;14.70;99.90;;;;;;5005308;28;20045;-54
2023/10/01 05:01:56;;;;;;;22.30;13.73;;;14.60;99.90;;;;;;5005562;28;20412;-56
2023/10/01 05:04:23;;;;;;;18.67;13.52;;;14.60;99.90;;;;;;5004609;28;20030;-57
2023/10/01 05:07:00;;;;;;;21.00;13.30;;;14.60;99.90;;;;;;5004155;28;20401;-57
2023/10/01 05:09:28;;;;;;;18.05;13.20;;;14.60;99.90;;;;;;5004062;28;20049;-57
2023/10/01 05:11:55;;;;;;;19.27;12.73;;;14.60;99.90;;;;;;5002995;28;20045;-57
2023/10/01 05:14:22;;;;;;;21.05;12.73;;;14.60;99.90;;;;;;5004912;28;20056;-56
2023/10/01 05:16:49;;;;;;;19.58;13.25;;;15.00;99.90;;;;;;5006024;28;20762;-57
2023/10/01 05:19:15;;;;;;;20.50;13.07;;;14.70;99.90;;;;;;5004672;28;20045;-54
2023/10/01 05:21:49;;;;;;;19.95;13.13;;;14.70;99.90;;;;;;5004835;28;20050;-55
2023/10/01 05:24:31;;;;;;;18.23;12.65;;;14.70;99.90;;;;;;5004951;28;20050;-57
2023/10/01 05:27:00;;;;;;;22.35;12.77;;;14.70;99.90;;;;;;5005092;28;20117;-57
2023/10/01 05:29:26;;;;;;;19.00;11.93;;;14.70;99.90;;;;;;5004419;28;20049;-58
2023/10/01 05:31:51;;;;;;;19.75;12.63;;;14.70;99.90;;;;;;5005101;28;20092;-56
2023/10/01 05:34:19;;;;;;;20.73;12.20;;;14.60;99.90;;;;;;5004445;28;20049;-57
2023/10/01 05:36:45;;;;;;;20.15;13.30;;;14.70;99.90;;;;;;5004621;28;20092;-55
2023/10/01 05:39:11;;;;;;;19.60;12.85;;;14.70;99.90;;;;;;5003702;28;20496;-55
2023/10/01 05:41:37;;;;;;;18.52;12.50;;;14.60;99.90;;;;;;5003825;28;20045;-54
2023/10/01 05:44:04;;;;;;;20.10;13.07;;;14.70;99.90;;;;;;5003288;28;20107;-53
2023/10/01 05:46:30;;;;;;;20.05;13.20;;;14.70;99.90;;;;;;5004086;28;20144;-56
2023/10/01 05:49:00;;;;;;;16.35;12.15;;;14.60;99.90;;;;;;5004508;28;20092;-55
2023/10/01 05:51:43;;;;;;;19.08;12.48;;;14.60;99.90;;;;;;5004026;28;20451;-57
2023/10/01 05:54:09;;;;;;;18.52;12.50;;;14.60;99.90;;;;;;5003474;28;20725;-57
2023/10/01 05:56:43;;;;;;;18.75;12.43;;;14.60;99.90;;;;;;5002058;28;20538;-56
2023/10/01 05:59:11;;;;;;;19.63;12.27;;;14.70;99.90;;;;;;5001776;28;20046;-57
2023/10/01 06:01:39;;;;;;;18.60;11.93;;;14.60;99.90;;;;;;5003528;28;20034;-57
2023/10/01 06:04:09;;;;;;;15.60;11.75;;;14.60;99.90;;;;;;5002970;28;20050;-58
2023/10/01 06:06:36;;;;;;;20.17;12.68;;;14.60;99.90;;;;;;5002559;28;20041;-54
2023/10/01 06:09:09;;;;;;;20.85;11.95;;;14.60;99.90;;;;;;5002221;28;20099;-53
2023/10/01 06:11:42;;;;;;;19.85;11.40;;;14.50;99.90;;;;;;5002363;28;20398;-57
2023/10/01 06:14:36;;;;;;;19.23;11.57;;;14.50;99.90;;;;;;5003884;28;20125;-54
2023/10/01 06:17:02;;;;;;;17.67;11.77;;;14.50;99.90;;;;;;5002500;28;20057;-58
2023/10/01 06:19:32;;;;;;;20.63;12.25;;;14.50;99.90;;;;;;5002811;28;20042;-57
2023/10/01 06:22:12;;;;;;;18.75;12.00;;;14.50;99.90;;;;;;5002745;28;20443;-55
2023/10/01 06:24:39;;;;;;;21.17;12.85;;;14.40;99.90;;;;;;5002572;28;20081;-55
2023/10/01 06:27:06;;;;;;;21.60;14.00;;;14.40;99.90;;;;;;5003605;28;20223;-57
2023/10/01 06:29:33;;;;;;;19.70;13.75;;;14.40;99.90;;;;;;5003686;28;20049;-57
2023/10/01 06:32:01;;;;;;;24.08;14.35;;;14.50;99.90;;;;;;5002243;28;20045;-57
2023/10/01 06:34:32;;;;;;;22.50;14.30;;;14.30;99.90;;;;;;5003137;28;20168;-57
2023/10/01 06:36:59;;;;;;;23.88;14.60;;;14.30;99.90;;;;;;5003812;28;20121;-57
2023/10/01 06:39:27;;;;;;;20.50;14.10;;;14.20;99.90;;;;;;5002080;28;20045;-56
2023/10/01 06:41:53;;;;;;;19.95;13.80;;;14.20;99.90;;;;;;5003696;28;20082;-55
2023/10/01 06:44:21;;;;;;;23.33;14.63;;;14.10;99.90;;;;;;5003762;28;20236;-56
2023/10/01 06:46:48;;;;;;;18.83;13.80;;;14.10;99.90;;;;;;5002763;28;20485;-55
2023/10/01 06:49:18;;;;;;;19.60;13.32;;;14.20;99.90;;;;;;5003395;28;20049;-57
2023/10/01 06:51:45;;;;;;;24.35;12.98;;;14.20;99.90;;;;;;5003005;28;20050;-57
2023/10/01 06:54:14;;;;;;;21.10;13.05;;;14.20;99.90;;;;;;5002112;28;20084;-57
2023/10/01 06:56:47;;;;;;;21.17;12.90;;;14.20;99.90;;;;;;5002558;28;20704;-56
2023/10/01 06:59:13;;;;;;;20.88;13.15;;;14.20;99.90;;;;;;5002182;28;20096;-58
2023/10/01 07:04:11;;;;;;;17.67;12.13;;;14.30;99.90;;;;;;5003433;28;20064;-57
2023/10/01 07:06:37;;;;;;;22.80;13.13;;;14.30;99.90;;;;;;5002768;28;20056;-55
2023/10/01 07:09:07;;;;;;;21.88;12.75;;;14.30;99.90;;;;;;5001984;28;20042;-56
2023/10/01 07:11:33;;;;;;;20.10;11.98;;;14.30;99.90;;;;;;5002887;28;20074;-58
2023/10/01 07:14:03;;;;;;;19.35;11.73;;;14.30;99.90;;;;;;5002946;28;20073;-55
2023/10/01 07:16:35;;;;;;;23.05;12.23;;;14.30;99.90;;;;;;5002449;28;20049;-57
2023/10/01 07:19:04;;;;;;;20.58;12.05;;;14.40;99.90;;;;;;5003336;28;20081;-57
2023/10/01 07:21:33;;;;;;;19.13;12.02;;;14.40;99.90;;;;;;5002666;28;20046;-57
2023/10/01 07:24:01;;;;;;;20.42;11.68;;;14.50;99.90;;;;;;5001816;28;20612;-58
2023/10/01 07:26:28;;;;;;;17.83;11.02;;;14.50;99.90;;;;;;5003359;28;20100;-58
2023/10/01 07:28:59;;;;;;;17.83;11.35;;;14.50;99.90;;;;;;5003007;28;20046;-59
2023/10/01 07:31:25;;;;;;;21.48;12.40;;;14.60;99.90;;;;;;5001178;28;20060;-55
2023/10/01 07:33:55;;;;;;;19.95;11.75;;;14.60;99.90;;;;;;5002699;28;20050;-57
2023/10/01 07:36:23;;;;;;;19.92;11.82;;;14.60;99.90;;;;;;5002609;28;20048;-55
2023/10/01 07:38:52;;;;;;;20.00;11.10;;;15.00;99.90;;;;;;5002153;28;20045;-58
2023/10/01 07:41:29;;;;;;;18.02;11.50;;;14.60;99.90;;;;;;5001129;28;20132;-56
2023/10/01 07:43:55;;;;;;;19.55;11.57;;;14.60;99.90;;;;;;5002620;28;20045;-57
2023/10/01 07:46:21;;;;;;;21.25;11.43;;;14.60;99.90;;;;;;5001762;28;20136;-54
2023/10/01 07:48:51;;;;;;;22.35;11.38;;;14.60;99.90;;;;;;5000582;28;20053;-54
2023/10/01 07:51:26;;;;;;;19.17;10.98;;;14.70;99.90;;;;;;4999620;28;20100;-52
2023/10/01 07:53:52;;;;;;;20.05;11.90;;;14.80;99.90;;;;;;5001559;28;20046;-59
2023/10/01 07:56:21;;;;;;;21.50;11.50;;;14.80;99.90;;;;;;5002846;28;20492;-57
2023/10/01 08:01:42;;;;;;;21.13;11.85;;;14.90;99.90;;;;;;4984635;28;20718;-54
2023/10/01 08:04:38;;;;;;;22.35;11.48;;;14.90;99.90;;;;;;5002189;28;20042;-58
2023/10/01 08:06:57;;;;;;;19.75;10.88;;;14.90;99.90;;;;;;5002319;28;20044;-57
2023/10/01 08:09:22;;;;;;;23.05;12.07;;;14.90;99.90;;;;;;5001431;28;20085;-57
2023/10/01 08:12:06;;;;;;;23.38;11.32;;;15.00;99.90;;;;;;5002925;28;20065;-56
2023/10/01 08:14:35;;;;;;;25.58;12.18;;;15.00;99.90;;;;;;5001207;28;20133;-58
2023/10/01 08:17:02;;;;;;;22.83;12.00;;;15.00;99.90;;;;;;5002236;28;20050;-56
2023/10/01 08:19:49;;;;;;;23.98;11.93;;;15.00;99.90;;;;;;5001745;28;20132;-56
2023/10/01 08:22:22;;;;;;;24.40;12.25;;;15.00;99.90;;;;;;5001781;28;20042;-56
2023/10/01 08:24:49;;;;;;;22.35;12.32;;;14.90;99.90;;;;;;5005023;28;20042;-57
2023/10/01 08:27:29;;;;;;;20.25;11.93;;;15.00;99.90;;;;;;5006249;28;20038;-58
2023/10/01 08:32:41;;;;;;;23.25;12.35;;;15.00;99.90;;;;;;5003623;28;20172;-56
2023/10/01 08:35:07;;;;;;;20.88;12.10;;;15.10;99.90;;;;;;5006130;28;20100;-57
2023/10/01 08:37:37;;;;;;;20.98;11.93;;;15.10;99.90;;;;;;5005756;28;20496;-54
2023/10/01 08:40:17;;;;;;;23.08;11.85;;;15.10;99.90;;;;;;5005378;28;20085;-55
2023/10/01 08:42:44;;;;;;;21.27;12.10;;;15.20;99.90;;;;;;5005668;28;20076;-55
2023/10/01 08:45:12;;;;;;;21.00;13.10;;;15.20;99.90;;;;;;5005508;28;20149;-53
2023/10/01 08:47:38;;;;;;;18.38;12.40;;;15.20;99.90;;;;;;5005844;28;20049;-55
2023/10/01 08:52:55;;;;;;;21.38;12.57;;;15.20;99.90;;;;;;5004757;28;20049;-57
2023/10/01 08:55:38;;;;;;;21.25;11.95;;;15.20;99.90;;;;;;5003507;28;20092;-55
2023/10/01 08:58:15;;;;;;;18.92;11.68;;;15.20;99.90;;;;;;5003950;28;20045;-54
2023/10/01 09:01:10;;;;;;;26.38;11.10;;;15.20;99.90;;;;;;5004811;28;20136;-57
2023/10/01 09:03:36;;;;;;;19.38;11.80;;;15.30;99.90;;;;;;5003949;28;20054;-57
2023/10/01 09:06:03;;;;;;;20.40;11.13;;;15.40;99.90;;;;;;5005455;28;20061;-54
2023/10/01 09:08:45;;;;;;;18.90;10.90;;;15.40;99.90;;;;;;5004347;28;20041;-57
2023/10/01 09:11:16;;;;;;;21.45;10.98;;;15.50;99.90;;;;;;5005441;28;20053;-57
2023/10/01 09:14:14;;;;;;;20.05;11.23;;;15.60;99.90;;;;;;5003965;28;20038;-57
2023/10/01 09:16:45;;;;;;;19.75;10.90;;;15.60;99.90;;;;;;5003878;28;20054;-57
2023/10/01 09:19:35;;;;;;;18.45;11.18;;;15.70;99.90;;;;;;5004199;28;20112;-54
2023/10/01 09:22:22;;;;;;;17.80;10.85;;;15.80;99.90;;;;;;5004362;28;20050;-60
2023/10/01 09:25:01;;;;;;;19.33;11.20;;;15.80;99.90;;;;;;4989523;28;20128;-53
2023/10/01 09:27:30;;;;;;;18.45;11.40;;;15.70;99.90;;;;;;4986567;28;20034;-58
2023/10/01 09:32:54;;;;;;;18.10;11.00;;;15.90;99.90;;;;;;5004072;28;20053;-56
2023/10/01 09:35:39;;;;;;;20.23;10.38;;;16.10;99.90;;;;;;5003180;28;20054;-57
2023/10/01 09:38:12;;;;;;;16.27;10.10;;;16.40;99.90;;;;;;5003618;28;20038;-57
2023/10/01 09:40:42;;;;;;;18.60;9.15;;;16.60;99.90;;;;;;5003176;28;20042;-58
2023/10/01 09:43:18;;;;;;;17.17;9.77;;;16.70;99.90;;;;;;5005324;28;20069;-57
2023/10/01 09:45:46;;;;;;;19.55;10.25;;;16.80;99.90;;;;;;5003325;28;20381;-59
2023/10/01 09:48:29;;;;;;;21.08;9.27;;;16.90;99.90;;;;;;5001962;28;20096;-55
2023/10/01 09:51:31;;;;;;;15.35;9.75;;;17.00;99.90;;;;;;5005019;28;20077;-53
2023/10/01 09:54:02;;;;;;;16.77;9.23;;;17.10;99.90;;;;;;5003773;28;20050;-57
2023/10/01 09:56:46;;;;;;;16.77;9.60;;;17.20;99.90;;;;;;5004237;28;20046;-57
2023/10/01 09:59:13;;;;;;;19.35;9.75;;;17.30;99.90;;;;;;5004702;28;20057;-57
2023/10/01 10:01:43;;;;;;;16.38;9.18;;;17.30;99.90;;;;;;5003694;28;20034;-58
2023/10/01 10:04:10;;;;;;;16.85;9.10;;;17.40;99.90;;;;;;5002486;28;20172;-55
2023/10/01 10:06:41;;;;;;;16.48;8.40;;;17.40;99.90;;;;;;5002663;28;20054;-57
2023/10/01 10:09:25;;;;;;;16.08;9.00;;;17.40;99.90;;;;;;5003141;28;20408;-57
2023/10/01 10:11:50;;;;;;;15.68;8.38;;;17.50;99.90;;;;;;5004635;28;20064;-58
2023/10/01 10:14:28;;;;;;;18.60;9.18;;;17.50;99.90;;;;;;5004552;28;20619;-55
2023/10/01 10:17:01;;;;;;;19.73;8.45;;;17.60;99.90;;;;;;5002599;28;20137;-58
2023/10/01 10:19:31;;;;;;;16.70;9.07;;;17.70;99.90;;;;;;5004419;28;20124;-54
2023/10/01 10:24:32;;;;;;;17.73;8.68;;;18.00;99.90;;;;;;5002273;28;20550;-58
2023/10/01 10:27:06;;;;;;;16.27;8.50;;;18.30;99.90;;;;;;5004523;28;20042;-55
2023/10/01 10:29:49;;;;;;;16.77;8.55;;;18.60;99.90;;;;;;5004080;28;20072;-58
2023/10/01 10:32:16;;;;;;;14.40;7.70;;;18.80;99.90;;;;;;5004325;28;20100;-57
2023/10/01 10:35:03;;;;;;;15.73;8.13;;;19.10;99.90;;;;;;5001536;28;20484;-58
2023/10/01 10:37:35;;;;;;;16.67;8.20;;;19.50;99.90;;;;;;5002247;28;20049;-56
2023/10/01 10:40:12;;;;;;;13.65;8.23;;;19.70;99.90;;;;;;5003368;28;20061;-58
2023/10/01 10:43:04;;;;;;;16.30;8.13;;;19.90;99.90;;;;;;5002808;28;20057;-57
2023/10/01 10:45:42;;;;;;;18.98;7.95;;;20.10;99.90;;;;;;4990111;28;20224;-58
2023/10/01 10:48:21;;;;;;;14.02;7.60;;;20.10;99.90;;;;;;4997351;28;20099;-59
2023/10/01 10:50:49;;;;;;;17.13;7.30;;;20.10;99.90;;;;;;5004170;28;20046;-58
2023/10/01 10:53:23;;;;;;;12.90;7.13;;;20.10;99.90;;;;;;4999742;28;20049;-59
2023/10/01 10:56:07;;;;;;;15.80;7.40;;;20.30;99.90;;;;;;5003897;28;20054;-57
2023/10/01 10:58:42;;;;;;;16.35;7.65;;;20.20;99.90;;;;;;5002524;28;20097;-58
2023/10/01 11:01:15;;;;;;;15.35;7.72;;;20.20;99.90;;;;;;5002998;28;20389;-57
2023/10/01 11:03:59;;;;;;;17.75;7.78;;;20.20;99.90;;;;;;5002955;28;20071;-57
2023/10/01 11:09:27;;;;;;;13.05;7.00;;;20.00;99.90;;;;;;5001912;28;20053;-57
2023/10/01 11:12:07;;;;;;;18.02;8.40;;;19.90;99.90;;;;;;5003019;28;20132;-55
2023/10/01 11:14:37;;;;;;;13.95;7.65;;;19.80;99.90;;;;;;5001751;28;20120;-59
2023/10/01 11:17:06;;;;;;;13.52;7.57;;;19.70;99.90;;;;;;5003015;28;20092;-58
2023/10/01 11:19:36;;;;;;;16.85;7.53;;;19.70;99.90;;;;;;5002965;28;20397;-56
2023/10/01 11:22:04;;;;;;;14.80;7.35;;;19.60;99.90;;;;;;5002327;28;20046;-59
2023/10/01 11:24:30;;;;;;;15.85;7.57;;;19.70;99.90;;;;;;5000954;28;20041;-59
2023/10/01 11:30:19;;;;;;;16.23;6.68;;;19.70;99.90;;;;;;5001642;28;20132;-58
2023/10/01 11:35:37;;;;;;;16.88;7.38;;;19.80;99.90;;;;;;5002549;28;20046;-57
2023/10/01 11:38:13;;;;;;;15.55;7.88;;;19.80;99.90;;;;;;5002031;28;20077;-57
2023/10/01 11:43:28;;;;;;;15.38;7.15;;;19.80;99.90;;;;;;5000051;28;20053;-56
2023/10/01 11:46:19;;;;;;;15.30;7.28;;;19.90;99.90;;;;;;5001806;28;20042;-55
2023/10/01 11:49:07;;;;;;;17.58;7.63;;;19.90;99.90;;;;;;5002437;28;20034;-58
2023/10/01 11:51:34;;;;;;;14.98;7.10;;;20.00;99.90;;;;;;5000266;28;20045;-57
2023/10/01 11:54:43;;;;;;;15.63;7.80;;;20.00;99.90;;;;;;5001529;28;20112;-55
2023/10/01 11:57:08;;;;;;;17.63;8.23;;;19.90;99.90;;;;;;5001191;28;20045;-57
2023/10/01 11:59:42;;;;;;;18.73;7.88;;;19.90;99.90;;;;;;5004000;28;20053;-58
2023/10/01 12:02:20;;;;;;;19.02;7.78;;;20.00;99.90;;;;;;5006587;28;20128;-59
2023/10/01 12:04:59;;;;;;;21.10;8.00;;;20.00;99.90;;;;;;5005908;28;20046;-55
2023/10/01 12:07:32;;;;;;;16.40;8.20;;;20.00;99.90;;;;;;5005238;28;20053;-54
2023/10/01 12:09:59;;;;;;;19.88;7.55;;;20.00;99.90;;;;;;5005567;28;20108;-58
2023/10/01 12:12:28;;;;;;;18.35;7.97;;;19.90;99.90;;;;;;5005668;28;20042;-59
2023/10/01 12:14:55;;;;;;;12.90;6.93;;;20.00;99.90;;;;;;5006111;28;20112;-55
2023/10/01 12:17:28;;;;;;;17.45;7.80;;;20.00;99.90;;;;;;5005458;28;20064;-58
2023/10/01 12:19:57;;;;;;;16.48;7.65;;;19.90;99.90;;;;;;5006271;28;20425;-56
2023/10/01 12:22:26;;;;;;;14.98;7.47;;;19.90;99.90;;;;;;5005367;28;20069;-59
2023/10/01 12:24:59;;;;;;;15.45;7.70;;;19.90;99.90;;;;;;5005837;28;20509;-56
2023/10/01 12:27:42;;;;;;;14.43;7.83;;;19.90;99.90;;;;;;5003937;28;20049;-58
2023/10/01 12:30:28;;;;;;;18.88;7.63;;;20.00;99.90;;;;;;5006165;28;20108;-58
2023/10/01 12:33:00;;;;;;;15.55;7.07;;;20.00;99.90;;;;;;5006285;28;20042;-58
2023/10/01 12:35:29;;;;;;;14.80;7.30;;;19.90;99.90;;;;;;5005645;28;20161;-55
2023/10/01 12:38:05;;;;;;;14.55;7.60;;;19.90;99.90;;;;;;5004298;28;20041;-56
2023/10/01 12:40:34;;;;;;;15.43;7.55;;;20.00;99.90;;;;;;5005875;28;20045;-56
2023/10/01 12:43:32;;;;;;;14.15;6.80;;;20.10;99.90;;;;;;5005887;28;20555;-55
2023/10/01 12:45:50;;;;;;;17.58;7.93;;;20.10;99.90;;;;;;5005864;28;20415;-55
2023/10/01 12:48:20;;;;;;;16.55;7.60;;;20.20;99.90;;;;;;5005896;28;20121;-56
2023/10/01 12:51:03;;;;;;;15.43;7.30;;;20.20;99.90;;;;;;5005630;28;20045;-52
2023/10/01 12:53:47;;;;;;;14.43;6.90;;;20.20;99.90;;;;;;5003428;28;20545;-56
2023/10/01 12:56:14;;;;;;;15.88;8.02;;;20.20;99.90;;;;;;5004602;28;20061;-57
2023/10/01 12:58:43;;;;;;;14.40;6.80;;;20.30;99.90;;;;;;5005170;28;20046;-57
2023/10/01 13:01:23;;;;;;;14.13;7.70;;;20.40;99.90;;;;;;5005310;28;20069;-58
2023/10/01 13:03:52;;;;;;;15.13;8.32;;;20.40;99.90;;;;;;5005249;28;20113;-54
2023/10/01 13:06:17;;;;;;;13.90;7.78;;;20.60;99.90;;;;;;5005482;28;20050;-57
2023/10/01 13:08:44;;;;;;;14.07;7.63;;;20.70;99.90;;;;;;5004091;28;20042;-57
2023/10/01 13:13:54;;;;;;;16.73;7.57;;;20.90;99.90;;;;;;5005181;28;20041;-54
2023/10/01 13:16:21;;;;;;;17.92;7.88;;;20.90;99.90;;;;;;5002344;28;20095;-55
2023/10/01 13:18:46;;;;;;;13.75;7.35;;;21.00;99.90;;;;;;5001792;28;20046;-54
2023/10/01 13:21:12;;;;;;;13.25;7.10;;;21.00;99.90;;;;;;5001818;28;20057;-56
2023/10/01 13:23:44;;;;;;;14.02;7.65;;;21.00;99.90;;;;;;5000662;28;20116;-55
2023/10/01 13:26:24;;;;;;;19.15;7.80;;;20.90;99.90;;;;;;5001088;28;20791;-54
2023/10/01 13:28:51;;;;;;;15.35;7.53;;;21.10;99.90;;;;;;4999724;28;20049;-54
2023/10/01 13:34:06;;;;;;;13.20;7.35;;;21.10;99.90;;;;;;5001542;28;20054;-57
2023/10/01 13:36:50;;;;;;;15.13;7.40;;;21.10;99.90;;;;;;5001775;28;20061;-56
2023/10/01 14:09:52;;;;;;;15.98;8.25;;;21.00;99.90;;;;;;4998076;28;20045;-58
2023/10/01 14:12:42;;;;;;;17.33;7.90;;;21.00;99.90;;;;;;4999268;28;20092;-55
2023/10/01 14:15:21;;;;;;;16.40;8.27;;;21.00;99.90;;;;;;4998829;28;20038;-58
2023/10/01 14:17:53;;;;;;;15.90;8.40;;;21.00;99.90;;;;;;4999555;28;20064;-58